sim
Sign-in with your pilot id or email,
or register
Callsign
Passwort

Schedule Details

Flight Number: OEO1952
Departure: Madrid Barajas Airport (LEMD) at 09:55
Arrival: Fuerteventura Airport (GCFV) at 12:45

Weather Information
Getting current METAR information for LEMD 182030Z VRB02KT 9999 -RA SCT040 OVC055 10/09 Q1013 R88/29//95 TEMPO NSW
Getting current METAR information for GCFV 182030Z 36014KT 9999 FEW045 18/11 Q1019

Schedule Frequency

Route Map